createdAt,value
2017-07-03T00:00:14.161Z,72.10
2017-07-03T00:02:42.418Z,72.10
2017-07-03T00:05:10.657Z,72.20
2017-07-03T00:07:39.050Z,72.20
2017-07-03T00:10:07.273Z,72.40
2017-07-03T00:12:35.524Z,72.10
2017-07-03T00:15:03.854Z,72.00
2017-07-03T00:17:32.105Z,71.90
2017-07-03T00:20:00.350Z,71.90
2017-07-03T00:22:28.621Z,71.60
2017-07-03T00:24:56.932Z,71.40
2017-07-03T00:27:25.190Z,69.60
2017-07-03T00:29:53.426Z,70.30
2017-07-03T00:32:22.444Z,70.80
2017-07-03T00:34:50.734Z,70.90
2017-07-03T00:37:18.988Z,71.10
2017-07-03T00:39:48.110Z,70.70
2017-07-03T00:42:16.369Z,70.70
2017-07-03T00:44:44.660Z,70.90
2017-07-03T00:47:12.918Z,70.50
2017-07-03T00:49:41.153Z,70.80
2017-07-03T00:52:09.403Z,70.90
2017-07-03T00:54:37.645Z,70.90
2017-07-03T00:57:05.891Z,71.00
2017-07-03T00:59:34.889Z,71.30
2017-07-03T01:02:03.921Z,71.40
2017-07-03T01:04:32.217Z,71.40
2017-07-03T01:07:00.449Z,71.40
2017-07-03T01:09:28.705Z,71.60
2017-07-03T01:11:57.715Z,71.70
2017-07-03T01:14:26.023Z,71.70
2017-07-03T01:16:54.267Z,72.80
2017-07-03T01:19:23.277Z,72.30
2017-07-03T01:21:51.560Z,72.30
2017-07-03T01:24:19.837Z,72.60
2017-07-03T01:26:48.194Z,73.00
2017-07-03T01:29:16.456Z,73.00
2017-07-03T01:31:44.697Z,73.20
2017-07-03T01:34:12.944Z,73.10
2017-07-03T01:36:41.218Z,73.10
2017-07-03T01:39:09.489Z,73.10
2017-07-03T01:41:37.768Z,73.10
2017-07-03T01:44:06.024Z,72.80
2017-07-03T01:46:34.352Z,72.70
2017-07-03T01:49:02.646Z,72.70
2017-07-03T01:51:30.877Z,73.00
2017-07-03T01:53:59.133Z,72.80
2017-07-03T01:56:27.532Z,73.50
2017-07-03T01:58:55.789Z,73.10
2017-07-03T02:01:24.137Z,73.30
2017-07-03T02:03:53.132Z,73.80
2017-07-03T02:06:22.264Z,73.70
2017-07-03T02:08:50.506Z,73.70
2017-07-03T02:11:19.590Z,73.60
2017-07-03T02:13:48.621Z,73.60
2017-07-03T02:16:16.873Z,73.40
2017-07-03T02:18:45.121Z,73.30
2017-07-03T02:21:13.384Z,73.00
2017-07-03T02:23:41.630Z,72.80
2017-07-03T02:26:09.887Z,72.80
2017-07-03T02:28:38.125Z,72.60
2017-07-03T02:31:07.322Z,73.20
2017-07-03T02:33:35.532Z,72.70
2017-07-03T02:36:03.785Z,72.40
2017-07-03T02:38:32.879Z,72.20
2017-07-03T02:41:01.925Z,71.90
2017-07-03T02:43:30.174Z,71.90
2017-07-03T02:45:58.463Z,71.50
2017-07-03T02:48:26.697Z,71.10
2017-07-03T02:50:55.720Z,71.10
2017-07-03T02:53:24.002Z,71.10
2017-07-03T02:55:53.076Z,71.00
2017-07-03T02:58:21.314Z,71.10
2017-07-03T03:00:49.577Z,70.90
2017-07-03T03:03:17.897Z,71.00
2017-07-03T03:05:46.135Z,70.50
2017-07-03T03:08:14.379Z,70.70
2017-07-03T03:10:42.685Z,71.60
2017-07-03T03:13:10.941Z,71.90
2017-07-03T03:15:39.174Z,72.20
2017-07-03T03:18:07.474Z,72.30
2017-07-03T03:20:35.760Z,72.40
2017-07-03T03:23:04.005Z,72.30
2017-07-03T03:25:32.338Z,72.30
2017-07-03T03:28:00.639Z,72.30
2017-07-03T03:30:28.840Z,72.70
2017-07-03T03:32:57.110Z,73.20
2017-07-03T03:35:25.362Z,73.30
2017-07-03T03:37:53.629Z,73.40
2017-07-03T03:40:21.878Z,73.90
2017-07-03T03:42:50.140Z,74.10
2017-07-03T03:45:18.373Z,74.30
2017-07-03T03:47:47.402Z,74.30
2017-07-03T03:50:15.635Z,74.20
2017-07-03T03:52:44.769Z,74.30
2017-07-03T03:55:13.016Z,74.30
2017-07-03T03:57:42.055Z,74.20
2017-07-03T04:00:10.322Z,74.20
2017-07-03T04:02:38.591Z,74.20
2017-07-03T04:05:06.836Z,74.50
2017-07-03T04:07:35.862Z,74.80
2017-07-03T04:10:04.096Z,74.80
2017-07-03T04:12:33.162Z,75.10
2017-07-03T04:15:01.422Z,75.10
2017-07-03T04:17:29.681Z,75.20
2017-07-03T04:19:57.973Z,74.90
2017-07-03T04:22:26.231Z,74.50
2017-07-03T04:24:54.570Z,74.40
2017-07-03T04:27:23.579Z,74.70
2017-07-03T04:29:51.905Z,74.70
2017-07-03T04:32:20.168Z,74.80
2017-07-03T04:34:48.393Z,74.20
2017-07-03T04:37:16.659Z,74.20
2017-07-03T04:39:45.798Z,73.50
2017-07-03T04:42:14.046Z,74.50
2017-07-03T04:44:42.297Z,73.70
2017-07-03T04:47:10.616Z,73.60
2017-07-03T04:49:38.870Z,73.00
2017-07-03T04:52:07.869Z,72.10
2017-07-03T04:54:36.135Z,72.10
2017-07-03T04:57:05.163Z,71.50
2017-07-03T04:59:33.410Z,71.50
2017-07-03T05:02:01.664Z,70.50
2017-07-03T05:04:30.689Z,68.20
2017-07-03T05:06:58.937Z,68.10
2017-07-03T05:09:27.972Z,66.00
2017-07-03T05:11:56.229Z,65.90
2017-07-03T05:14:24.480Z,66.20
2017-07-03T05:16:52.712Z,63.80
2017-07-03T05:19:20.965Z,61.50
2017-07-03T05:21:49.206Z,60.70
2017-07-03T05:24:18.318Z,59.10
2017-07-03T05:26:47.342Z,58.30
2017-07-03T05:29:15.577Z,58.30
2017-07-03T05:31:44.630Z,56.30
2017-07-03T05:34:12.909Z,56.30
2017-07-03T05:36:41.157Z,55.70
2017-07-03T05:39:09.417Z,56.50
2017-07-03T05:41:37.748Z,56.60
2017-07-03T05:44:11.661Z,55.80
2017-07-03T05:46:39.915Z,56.10
2017-07-03T05:49:08.173Z,55.70
2017-07-03T05:51:36.438Z,55.50
2017-07-03T05:54:04.676Z,55.00
2017-07-03T05:56:33.701Z,54.20
2017-07-03T05:59:01.948Z,54.20
2017-07-03T06:01:31.021Z,52.50
2017-07-03T06:03:59.276Z,52.60
2017-07-03T06:06:27.525Z,52.30
2017-07-03T06:08:55.780Z,51.40
2017-07-03T06:11:24.908Z,48.70
2017-07-03T06:13:53.204Z,48.70
2017-07-03T06:16:21.469Z,47.10
2017-07-03T06:18:50.328Z,45.60
2017-07-03T06:21:19.048Z,45.00
2017-07-03T06:23:47.446Z,42.70
2017-07-03T06:26:15.794Z,40.40
2017-07-03T06:28:44.086Z,40.90
2017-07-03T06:31:12.323Z,40.20
2017-07-03T06:33:40.620Z,39.10
2017-07-03T06:36:08.861Z,36.70
2017-07-03T06:38:37.890Z,34.60
2017-07-03T06:41:06.126Z,34.70
2017-07-03T06:43:35.176Z,32.90
2017-07-03T06:46:03.409Z,32.90
2017-07-03T06:48:31.679Z,33.00
2017-07-03T06:51:00.782Z,34.10
2017-07-03T06:53:29.043Z,34.10
2017-07-03T06:55:58.052Z,36.80
2017-07-03T06:58:26.314Z,36.80
2017-07-03T07:00:55.316Z,38.90
2017-07-03T07:03:24.334Z,40.40
2017-07-03T07:05:53.068Z,40.40
2017-07-03T07:08:22.904Z,41.60
2017-07-03T07:10:51.988Z,43.00
2017-07-03T07:13:20.774Z,43.30
2017-07-03T07:15:50.875Z,45.70
2017-07-03T07:18:19.969Z,45.60
2017-07-03T07:20:49.183Z,46.30
2017-07-03T07:23:19.085Z,47.30
2017-07-03T07:25:49.234Z,47.60
2017-07-03T07:28:19.213Z,48.40
2017-07-03T07:30:48.557Z,48.90
2017-07-03T07:33:16.799Z,49.00
2017-07-03T07:35:45.824Z,50.30
2017-07-03T07:38:14.138Z,50.30
2017-07-03T07:40:42.382Z,50.70
2017-07-03T07:43:10.625Z,51.40
2017-07-03T07:45:39.762Z,51.60
2017-07-03T07:48:08.015Z,51.50
2017-07-03T07:50:36.349Z,51.50
2017-07-03T07:53:04.603Z,51.90
2017-07-03T07:55:32.858Z,52.30
2017-07-03T07:58:01.221Z,52.60
2017-07-03T08:00:29.483Z,53.00
2017-07-03T08:02:58.458Z,52.90
2017-07-03T08:05:27.876Z,53.80
2017-07-03T08:07:56.957Z,53.90
2017-07-03T08:10:26.437Z,54.70
2017-07-03T08:12:55.245Z,54.60
2017-07-03T08:15:24.809Z,54.00
2017-07-03T08:17:54.357Z,54.00
2017-07-03T08:20:24.752Z,53.10
2017-07-03T08:22:53.813Z,52.10
2017-07-03T08:25:22.083Z,52.10
2017-07-03T08:27:50.399Z,50.90
2017-07-03T08:30:18.656Z,50.10
2017-07-03T08:32:46.901Z,50.50
2017-07-03T08:35:15.234Z,48.20
2017-07-03T08:37:43.588Z,48.50
2017-07-03T08:40:11.825Z,48.10
2017-07-03T08:42:40.849Z,47.70
2017-07-03T08:45:09.089Z,47.70
2017-07-03T08:47:38.887Z,46.80
2017-07-03T08:50:08.025Z,46.80
2017-07-03T08:52:37.895Z,47.30
2017-07-03T08:55:07.198Z,47.30
2017-07-03T08:57:36.085Z,47.20
2017-07-03T09:00:06.580Z,47.00
2017-07-03T09:02:35.401Z,46.80
2017-07-03T09:05:04.811Z,46.20
2017-07-03T09:07:33.160Z,46.20
2017-07-03T09:10:01.510Z,46.00
2017-07-03T09:12:29.765Z,45.00
2017-07-03T09:14:58.067Z,44.00
2017-07-03T09:17:26.348Z,43.60
2017-07-03T09:19:54.569Z,43.20
2017-07-03T09:22:22.817Z,43.30
2017-07-03T09:24:51.418Z,42.60
2017-07-03T09:27:21.041Z,42.60
2017-07-03T09:29:50.675Z,40.30
2017-07-03T09:32:18.956Z,41.50
2017-07-03T09:34:47.194Z,42.70
2017-07-03T09:37:16.218Z,43.10
2017-07-03T09:39:44.456Z,42.50
2017-07-03T09:42:13.508Z,40.70
2017-07-03T09:44:41.757Z,40.20
2017-07-03T09:47:09.994Z,39.20
2017-07-03T09:49:38.271Z,38.80
2017-07-03T09:52:06.510Z,39.60
2017-07-03T09:54:34.873Z,39.10
2017-07-03T09:57:03.170Z,37.70
2017-07-03T09:59:31.550Z,36.80
2017-07-03T10:01:59.768Z,35.50
2017-07-03T10:04:28.901Z,36.30
2017-07-03T10:06:57.157Z,36.30
2017-07-03T10:09:25.426Z,37.10
2017-07-03T10:11:54.422Z,34.40
2017-07-03T10:14:22.725Z,34.40
2017-07-03T10:16:50.961Z,34.20
2017-07-03T10:19:19.992Z,33.50
2017-07-03T10:21:48.226Z,33.40
2017-07-03T10:24:17.306Z,29.70
2017-07-03T10:26:45.515Z,29.70
2017-07-03T10:29:13.807Z,28.30
2017-07-03T10:31:42.048Z,27.50
2017-07-03T10:34:11.054Z,27.80
2017-07-03T10:36:39.293Z,27.40
2017-07-03T10:39:07.544Z,27.40
2017-07-03T10:41:35.780Z,27.00
2017-07-03T10:44:04.030Z,26.70
2017-07-03T10:46:33.044Z,21.70
2017-07-03T10:49:01.363Z,21.70
2017-07-03T10:51:29.662Z,21.00
2017-07-03T10:53:58.050Z,21.70
2017-07-03T10:56:26.277Z,21.90
2017-07-03T10:58:54.517Z,20.20
2017-07-03T11:01:23.645Z,20.00
2017-07-03T11:03:51.916Z,20.00
2017-07-03T11:06:20.241Z,19.40
2017-07-03T11:08:48.489Z,19.10
2017-07-03T11:11:16.812Z,19.00
2017-07-03T11:13:45.132Z,18.50
2017-07-03T11:16:13.379Z,19.00
2017-07-03T11:18:41.682Z,19.30
2017-07-03T11:21:09.933Z,19.60
2017-07-03T11:23:38.181Z,19.60
2017-07-03T11:26:06.441Z,19.60
2017-07-03T11:28:34.684Z,20.50
2017-07-03T11:31:03.062Z,20.80
2017-07-03T11:33:31.293Z,20.60
2017-07-03T11:36:00.356Z,20.30
2017-07-03T11:38:28.617Z,20.30
2017-07-03T11:40:56.865Z,20.70
2017-07-03T11:43:25.741Z,21.60
2017-07-03T11:45:54.044Z,21.00
2017-07-03T11:48:22.302Z,22.40
2017-07-03T11:50:50.549Z,23.30
2017-07-03T11:53:19.571Z,24.20
2017-07-03T11:55:47.802Z,24.10
2017-07-03T11:58:16.049Z,24.10
2017-07-03T12:00:44.285Z,24.50
2017-07-03T12:03:12.537Z,24.90
2017-07-03T12:05:41.733Z,27.00
2017-07-03T12:08:09.969Z,27.00
2017-07-03T12:10:38.204Z,27.40
2017-07-03T12:13:06.509Z,27.70
2017-07-03T12:15:34.823Z,28.70
2017-07-03T12:18:03.062Z,29.50
2017-07-03T12:20:31.301Z,30.30
2017-07-03T12:22:59.558Z,31.10
2017-07-03T12:25:28.613Z,32.60
2017-07-03T12:27:56.862Z,32.30
2017-07-03T12:30:25.149Z,31.70
2017-07-03T12:32:53.398Z,33.00
2017-07-03T12:35:21.697Z,32.70
2017-07-03T12:37:49.979Z,33.70
2017-07-03T12:40:18.213Z,34.40
2017-07-03T12:42:47.350Z,33.20
2017-07-03T12:45:15.621Z,33.20
2017-07-03T12:47:43.897Z,33.10
2017-07-03T12:50:12.154Z,33.10
2017-07-03T12:52:40.389Z,32.70
2017-07-03T12:55:08.634Z,34.00
2017-07-03T12:57:36.890Z,34.30
2017-07-03T13:00:05.138Z,34.20
2017-07-03T13:02:34.133Z,33.00
2017-07-03T13:05:02.388Z,33.00
2017-07-03T13:07:31.396Z,31.10
2017-07-03T13:10:00.424Z,29.70
2017-07-03T13:12:28.709Z,29.70
2017-07-03T13:14:57.074Z,28.40
2017-07-03T13:17:25.348Z,27.90
2017-07-03T13:19:53.638Z,28.70
2017-07-03T13:22:21.931Z,28.20
2017-07-03T13:24:50.182Z,28.90
2017-07-03T13:27:18.436Z,29.50
2017-07-03T13:29:46.732Z,30.10
2017-07-03T13:32:14.974Z,30.40
2017-07-03T13:34:43.994Z,30.10
2017-07-03T13:37:12.249Z,30.00
2017-07-03T13:39:41.374Z,32.10
2017-07-03T13:42:09.609Z,32.10
2017-07-03T13:44:38.628Z,31.90
2017-07-03T13:47:06.865Z,32.50
2017-07-03T13:49:35.195Z,31.30
2017-07-03T13:52:03.441Z,30.60
2017-07-03T13:54:31.692Z,30.70
2017-07-03T13:56:59.937Z,29.70
2017-07-03T13:59:28.176Z,30.90
2017-07-03T14:01:56.448Z,31.50
2017-07-03T14:04:25.441Z,31.00
2017-07-03T14:06:53.701Z,30.90
2017-07-03T14:09:22.715Z,31.40
2017-07-03T14:11:50.961Z,31.40
2017-07-03T14:14:20.048Z,31.50
2017-07-03T14:16:48.406Z,31.50
2017-07-03T14:19:16.637Z,31.90
2017-07-03T14:21:44.894Z,31.70
2017-07-03T14:24:13.197Z,32.40
2017-07-03T14:26:41.459Z,33.20
2017-07-03T14:29:09.695Z,32.70
2017-07-03T14:31:38.030Z,32.90
2017-07-03T14:34:06.302Z,32.80
2017-07-03T14:36:34.622Z,32.50
2017-07-03T14:39:02.857Z,32.00
2017-07-03T14:41:31.104Z,32.10
2017-07-03T14:43:59.348Z,31.90
2017-07-03T14:46:27.686Z,31.20
2017-07-03T14:48:55.961Z,30.30
2017-07-03T14:51:24.193Z,31.50
2017-07-03T14:53:53.330Z,32.50
2017-07-03T14:56:21.569Z,32.60
2017-07-03T14:58:50.580Z,32.10
2017-07-03T15:01:18.817Z,32.00
2017-07-03T15:03:47.063Z,32.80
2017-07-03T15:06:15.299Z,33.00
2017-07-03T15:08:43.622Z,33.40
2017-07-03T15:11:11.853Z,33.50
2017-07-03T15:13:40.115Z,33.90
2017-07-03T15:16:09.122Z,32.80
2017-07-03T15:18:37.426Z,32.70
2017-07-03T15:21:05.660Z,33.10
2017-07-03T15:23:33.917Z,32.20
2017-07-03T15:26:02.161Z,33.10
2017-07-03T15:28:30.400Z,33.30
2017-07-03T15:30:58.642Z,33.40
2017-07-03T15:33:26.886Z,33.90
2017-07-03T15:35:55.238Z,33.30
2017-07-03T15:38:23.498Z,33.60
2017-07-03T15:40:51.833Z,33.30
2017-07-03T15:43:20.094Z,33.00
2017-07-03T15:45:48.325Z,32.80
2017-07-03T15:48:16.595Z,33.10
2017-07-03T15:50:44.829Z,33.80
2017-07-03T15:53:13.064Z,34.80
2017-07-03T15:55:41.325Z,33.30
2017-07-03T15:58:09.556Z,33.10
2017-07-03T16:00:37.805Z,32.50
2017-07-03T16:03:06.426Z,32.10
2017-07-03T16:05:36.593Z,32.60
2017-07-03T16:08:04.872Z,32.90
2017-07-03T16:10:34.553Z,33.10
2017-07-03T16:13:03.970Z,32.90
2017-07-03T16:15:32.970Z,33.00
2017-07-03T16:18:01.604Z,33.00
2017-07-03T16:20:29.860Z,32.50
2017-07-03T16:22:58.101Z,32.50
2017-07-03T16:25:26.378Z,33.20
2017-07-03T16:27:54.616Z,33.30
2017-07-03T16:30:23.767Z,34.40
2017-07-03T16:32:52.153Z,34.40
2017-07-03T16:35:20.684Z,34.70
2017-07-03T16:37:49.004Z,34.20
2017-07-03T16:40:17.605Z,33.40
2017-07-03T16:42:45.854Z,32.80
2017-07-03T16:45:14.121Z,32.70
2017-07-03T16:47:42.395Z,31.80
2017-07-03T16:50:10.645Z,31.90
2017-07-03T16:52:38.973Z,31.00
2017-07-03T16:55:07.226Z,31.90
2017-07-03T16:57:35.504Z,31.90
2017-07-03T17:00:03.833Z,32.20
2017-07-03T17:02:32.922Z,32.00
2017-07-03T17:05:01.158Z,32.00
2017-07-03T17:07:29.481Z,32.10
2017-07-03T17:09:58.627Z,32.80
2017-07-03T17:12:26.872Z,32.30
2017-07-03T17:14:55.114Z,32.50
2017-07-03T17:17:23.429Z,32.60
2017-07-03T17:19:53.430Z,32.70
2017-07-03T17:22:22.510Z,32.70
2017-07-03T17:24:51.496Z,32.80
2017-07-03T17:27:20.282Z,33.10
2017-07-03T17:29:49.581Z,32.90
2017-07-03T17:32:19.021Z,33.30
2017-07-03T17:34:47.869Z,32.80
2017-07-03T17:37:17.992Z,32.50
2017-07-03T17:39:46.274Z,32.40
2017-07-03T17:42:15.293Z,33.00
2017-07-03T17:44:43.598Z,33.30
2017-07-03T17:47:11.850Z,32.80
2017-07-03T17:49:40.089Z,33.10
2017-07-03T17:52:08.329Z,32.70
2017-07-03T17:54:36.648Z,32.70
2017-07-03T17:57:06.041Z,32.70
2017-07-03T17:59:34.297Z,32.70
2017-07-03T18:02:02.576Z,32.70
2017-07-03T18:04:31.137Z,33.00
2017-07-03T18:06:59.605Z,32.90
2017-07-03T18:09:28.134Z,33.20
2017-07-03T18:11:57.192Z,33.70
2017-07-03T18:14:26.242Z,33.70
2017-07-03T18:16:55.354Z,33.70
2017-07-03T18:19:23.603Z,33.70
2017-07-03T18:21:52.610Z,33.40
2017-07-03T18:24:20.883Z,33.40
2017-07-03T18:26:49.946Z,34.20
2017-07-03T18:29:18.186Z,34.20
2017-07-03T18:31:46.521Z,34.40
2017-07-03T18:34:15.535Z,35.20
2017-07-03T18:36:43.844Z,35.20
2017-07-03T18:39:12.089Z,35.10
2017-07-03T18:41:40.385Z,35.50
2017-07-03T18:44:08.637Z,35.20
2017-07-03T18:46:36.873Z,35.70
2017-07-03T18:49:05.207Z,36.40
2017-07-03T18:51:33.686Z,36.20
2017-07-03T18:54:02.010Z,36.40
2017-07-03T18:56:31.065Z,36.60
2017-07-03T18:58:59.313Z,35.80
2017-07-03T19:01:27.560Z,35.80
2017-07-03T19:03:56.698Z,36.20
2017-07-03T19:06:24.936Z,36.10
2017-07-03T19:08:53.953Z,34.20
2017-07-03T19:11:22.201Z,34.10
2017-07-03T19:13:51.233Z,35.10
2017-07-03T19:16:20.069Z,35.00
2017-07-03T19:18:48.600Z,35.10
2017-07-03T19:21:16.927Z,36.30
2017-07-03T19:23:45.217Z,36.40
2017-07-03T19:26:14.239Z,37.60
2017-07-03T19:28:42.533Z,36.80
2017-07-03T19:31:10.850Z,37.30
2017-07-03T19:33:39.084Z,37.10
2017-07-03T19:36:07.362Z,37.40
2017-07-03T19:38:35.596Z,37.60
2017-07-03T19:41:03.917Z,37.80
2017-07-03T19:43:32.237Z,38.20
2017-07-03T19:46:00.608Z,38.10
2017-07-03T19:48:29.726Z,38.20
2017-07-03T19:50:58.810Z,39.40
2017-07-03T19:53:27.953Z,38.80
2017-07-03T19:55:56.208Z,38.70
2017-07-03T19:58:24.464Z,38.80
2017-07-03T20:00:53.540Z,39.30
2017-07-03T20:03:21.928Z,39.30
2017-07-03T20:05:50.186Z,39.20
2017-07-03T20:08:18.418Z,39.10
2017-07-03T20:10:46.682Z,39.20
2017-07-03T20:13:14.969Z,39.30
2017-07-03T20:15:43.231Z,39.40
2017-07-03T20:18:11.583Z,39.50
2017-07-03T20:20:39.852Z,39.90
2017-07-03T20:23:08.176Z,39.80
2017-07-03T20:25:36.410Z,40.00
2017-07-03T20:28:05.610Z,39.90
2017-07-03T20:30:33.944Z,39.80
2017-07-03T20:33:02.253Z,40.00
2017-07-03T20:35:30.473Z,39.90
2017-07-03T20:37:58.745Z,40.20
2017-07-03T20:40:26.993Z,40.40
2017-07-03T20:42:56.038Z,41.10
2017-07-03T20:45:24.249Z,40.40
2017-07-03T20:47:53.274Z,40.60
2017-07-03T20:50:21.506Z,40.60
2017-07-03T20:52:49.767Z,40.70
2017-07-03T20:55:17.993Z,40.60
2017-07-03T20:57:46.245Z,40.60
2017-07-03T21:00:15.242Z,40.40
2017-07-03T21:02:44.257Z,40.60
2017-07-03T21:05:13.002Z,40.60
2017-07-03T21:07:41.366Z,41.00
2017-07-03T21:10:10.065Z,40.90
2017-07-03T21:12:39.172Z,41.10
2017-07-03T21:15:08.049Z,41.00
2017-07-03T21:17:38.324Z,41.50
2017-07-03T21:20:07.578Z,41.50
2017-07-03T21:22:37.548Z,41.30
2017-07-03T21:25:06.918Z,41.30
2017-07-03T21:27:35.209Z,41.40
2017-07-03T21:30:03.462Z,41.00
2017-07-03T21:32:32.441Z,40.80
2017-07-03T21:35:01.459Z,40.60
2017-07-03T21:37:30.318Z,40.50
2017-07-03T21:39:58.641Z,40.90
2017-07-03T21:42:26.888Z,40.90
2017-07-03T21:44:56.013Z,41.10
2017-07-03T21:47:24.292Z,41.10
2017-07-03T21:49:52.594Z,41.30
2017-07-03T21:52:20.830Z,41.00
2017-07-03T21:54:49.115Z,40.90
2017-07-03T21:57:17.348Z,41.40
2017-07-03T21:59:46.371Z,42.10
2017-07-03T22:02:14.603Z,42.00
2017-07-03T22:04:43.654Z,42.30
2017-07-03T22:07:11.893Z,42.30
2017-07-03T22:09:40.915Z,42.30
2017-07-03T22:12:09.146Z,42.30
2017-07-03T22:14:37.396Z,42.50
2017-07-03T22:17:05.754Z,42.20
2017-07-03T22:19:34.014Z,41.80
2017-07-03T22:22:02.304Z,42.10
2017-07-03T22:24:30.553Z,41.90
2017-07-03T22:26:58.796Z,42.10
2017-07-03T22:29:27.067Z,41.50
2017-07-03T22:31:55.302Z,42.30
2017-07-03T22:34:23.566Z,41.90
2017-07-03T22:36:51.862Z,41.70
2017-07-03T22:39:20.089Z,41.40
2017-07-03T22:41:49.118Z,42.70
2017-07-03T22:44:17.360Z,42.70
2017-07-03T22:46:46.382Z,42.70
2017-07-03T22:49:14.680Z,42.70
2017-07-03T22:51:42.928Z,42.40
2017-07-03T22:54:11.257Z,42.40
2017-07-03T22:56:39.507Z,42.40
2017-07-03T22:59:07.745Z,42.60
2017-07-03T23:01:35.996Z,43.40
2017-07-03T23:04:04.988Z,42.60
2017-07-03T23:06:34.341Z,43.00
2017-07-03T23:09:02.581Z,43.00
2017-07-03T23:11:30.842Z,44.40
2017-07-03T23:13:59.866Z,43.20
2017-07-03T23:16:28.175Z,43.10
2017-07-03T23:18:56.533Z,42.80
2017-07-03T23:21:24.805Z,42.20
2017-07-03T23:23:53.144Z,42.30
2017-07-03T23:26:22.170Z,42.30
2017-07-03T23:28:50.470Z,42.30
2017-07-03T23:31:19.444Z,42.20
2017-07-03T23:33:47.746Z,42.10
2017-07-03T23:36:15.998Z,42.10
2017-07-03T23:38:44.245Z,42.20
2017-07-03T23:41:13.296Z,42.30
2017-07-03T23:43:41.533Z,42.30
2017-07-03T23:46:09.889Z,42.50
2017-07-03T23:48:38.139Z,42.90
2017-07-03T23:51:06.466Z,43.10
2017-07-03T23:53:34.721Z,43.50
2017-07-03T23:56:02.965Z,43.60
2017-07-03T23:58:32.030Z,43.60
